sensor_id;sensor_type;location;lat;lon;timestamp;P1;durP1;ratioP1;P2;durP2;ratioP2
12482;SDS011;6306;47.134;15.344;2022-07-06T00:01:55;4.30;;;2.90;;
12482;SDS011;6306;47.134;15.344;2022-07-06T00:04:21;2.50;;;2.37;;
12482;SDS011;6306;47.134;15.344;2022-07-06T00:06:47;3.07;;;2.23;;
12482;SDS011;6306;47.134;15.344;2022-07-06T00:09:13;2.50;;;2.30;;
12482;SDS011;6306;47.134;15.344;2022-07-06T00:11:39;2.23;;;2.13;;
12482;SDS011;6306;47.134;15.344;2022-07-06T00:14:05;2.60;;;2.40;;
12482;SDS011;6306;47.134;15.344;2022-07-06T00:16:31;2.93;;;2.70;;
12482;SDS011;6306;47.134;15.344;2022-07-06T00:18:57;2.70;;;2.50;;
12482;SDS011;6306;47.134;15.344;2022-07-06T00:21:23;4.20;;;2.87;;
12482;SDS011;6306;47.134;15.344;2022-07-06T00:23:49;2.70;;;2.50;;
12482;SDS011;6306;47.134;15.344;2022-07-06T00:26:16;2.50;;;2.30;;
12482;SDS011;6306;47.134;15.344;2022-07-06T00:28:43;3.50;;;2.70;;
12482;SDS011;6306;47.134;15.344;2022-07-06T00:31:09;3.17;;;2.90;;
12482;SDS011;6306;47.134;15.344;2022-07-06T00:33:35;3.30;;;3.10;;
12482;SDS011;6306;47.134;15.344;2022-07-06T00:36:01;2.60;;;2.40;;
12482;SDS011;6306;47.134;15.344;2022-07-06T00:38:27;3.50;;;3.20;;
12482;SDS011;6306;47.134;15.344;2022-07-06T00:40:53;2.17;;;2.07;;
12482;SDS011;6306;47.134;15.344;2022-07-06T00:43:19;4.37;;;2.13;;
12482;SDS011;6306;47.134;15.344;2022-07-06T00:45:45;2.57;;;2.30;;
12482;SDS011;6306;47.134;15.344;2022-07-06T00:48:11;3.30;;;3.10;;
12482;SDS011;6306;47.134;15.344;2022-07-06T00:50:37;3.20;;;2.70;;
12482;SDS011;6306;47.134;15.344;2022-07-06T00:53:04;3.17;;;2.53;;
12482;SDS011;6306;47.134;15.344;2022-07-06T00:55:31;3.40;;;3.10;;
12482;SDS011;6306;47.134;15.344;2022-07-06T00:57:58;3.27;;;2.97;;
12482;SDS011;6306;47.134;15.344;2022-07-06T01:00:26;3.23;;;2.93;;
12482;SDS011;6306;47.134;15.344;2022-07-06T01:02:53;3.30;;;2.97;;
12482;SDS011;6306;47.134;15.344;2022-07-06T01:05:19;3.20;;;2.90;;
12482;SDS011;6306;47.134;15.344;2022-07-06T01:07:48;4.37;;;3.50;;
12482;SDS011;6306;47.134;15.344;2022-07-06T01:10:15;4.20;;;2.90;;
12482;SDS011;6306;47.134;15.344;2022-07-06T01:12:42;3.10;;;2.63;;
12482;SDS011;6306;47.134;15.344;2022-07-06T01:15:10;3.20;;;2.80;;
12482;SDS011;6306;47.134;15.344;2022-07-06T01:17:37;3.07;;;2.70;;
12482;SDS011;6306;47.134;15.344;2022-07-06T01:20:17;2.97;;;2.70;;
12482;SDS011;6306;47.134;15.344;2022-07-06T01:22:44;5.07;;;2.83;;
12482;SDS011;6306;47.134;15.344;2022-07-06T01:25:10;3.30;;;3.00;;
12482;SDS011;6306;47.134;15.344;2022-07-06T01:27:37;3.13;;;2.77;;
12482;SDS011;6306;47.134;15.344;2022-07-06T01:30:05;2.80;;;2.60;;
12482;SDS011;6306;47.134;15.344;2022-07-06T01:32:31;3.03;;;2.80;;
12482;SDS011;6306;47.134;15.344;2022-07-06T01:34:58;3.90;;;3.20;;
12482;SDS011;6306;47.134;15.344;2022-07-06T01:37:24;2.73;;;2.53;;
12482;SDS011;6306;47.134;15.344;2022-07-06T01:39:50;2.87;;;2.67;;
12482;SDS011;6306;47.134;15.344;2022-07-06T01:42:16;4.10;;;3.73;;
12482;SDS011;6306;47.134;15.344;2022-07-06T01:44:42;3.20;;;2.97;;
12482;SDS011;6306;47.134;15.344;2022-07-06T01:47:09;6.73;;;3.50;;
12482;SDS011;6306;47.134;15.344;2022-07-06T01:49:35;2.60;;;2.40;;
12482;SDS011;6306;47.134;15.344;2022-07-06T01:52:01;3.30;;;3.00;;
12482;SDS011;6306;47.134;15.344;2022-07-06T01:54:27;3.37;;;3.07;;
12482;SDS011;6306;47.134;15.344;2022-07-06T01:56:53;4.17;;;3.33;;
12482;SDS011;6306;47.134;15.344;2022-07-06T01:59:19;4.33;;;3.40;;
12482;SDS011;6306;47.134;15.344;2022-07-06T02:01:45;3.00;;;2.80;;
12482;SDS011;6306;47.134;15.344;2022-07-06T02:04:11;5.50;;;2.43;;
12482;SDS011;6306;47.134;15.344;2022-07-06T02:06:37;3.00;;;2.80;;
12482;SDS011;6306;47.134;15.344;2022-07-06T02:09:03;5.43;;;3.10;;
12482;SDS011;6306;47.134;15.344;2022-07-06T02:11:29;3.97;;;3.67;;
12482;SDS011;6306;47.134;15.344;2022-07-06T02:13:55;3.23;;;2.93;;
12482;SDS011;6306;47.134;15.344;2022-07-06T02:16:21;3.80;;;3.37;;
12482;SDS011;6306;47.134;15.344;2022-07-06T02:18:47;3.13;;;2.93;;
12482;SDS011;6306;47.134;15.344;2022-07-06T02:21:13;2.50;;;2.30;;
12482;SDS011;6306;47.134;15.344;2022-07-06T02:23:39;2.87;;;2.63;;
12482;SDS011;6306;47.134;15.344;2022-07-06T02:26:06;4.23;;;3.20;;
12482;SDS011;6306;47.134;15.344;2022-07-06T02:28:32;3.23;;;2.93;;
12482;SDS011;6306;47.134;15.344;2022-07-06T02:30:58;4.87;;;3.10;;
12482;SDS011;6306;47.134;15.344;2022-07-06T02:33:24;3.30;;;3.10;;
12482;SDS011;6306;47.134;15.344;2022-07-06T02:35:50;3.53;;;3.20;;
12482;SDS011;6306;47.134;15.344;2022-07-06T02:38:16;3.70;;;3.40;;
12482;SDS011;6306;47.134;15.344;2022-07-06T02:40:42;5.40;;;3.47;;
12482;SDS011;6306;47.134;15.344;2022-07-06T02:43:08;4.00;;;3.70;;
12482;SDS011;6306;47.134;15.344;2022-07-06T02:45:35;3.60;;;3.37;;
12482;SDS011;6306;47.134;15.344;2022-07-06T02:48:01;4.60;;;3.60;;
12482;SDS011;6306;47.134;15.344;2022-07-06T02:50:27;3.60;;;2.80;;
12482;SDS011;6306;47.134;15.344;2022-07-06T02:52:53;4.10;;;3.70;;
12482;SDS011;6306;47.134;15.344;2022-07-06T02:55:20;3.10;;;2.90;;
12482;SDS011;6306;47.134;15.344;2022-07-06T02:57:46;3.27;;;3.07;;
12482;SDS011;6306;47.134;15.344;2022-07-06T03:00:12;2.80;;;2.60;;
12482;SDS011;6306;47.134;15.344;2022-07-06T03:02:39;3.60;;;3.27;;
12482;SDS011;6306;47.134;15.344;2022-07-06T03:05:05;9.30;;;4.00;;
12482;SDS011;6306;47.134;15.344;2022-07-06T03:07:31;2.80;;;2.60;;
12482;SDS011;6306;47.134;15.344;2022-07-06T03:09:57;3.27;;;3.07;;
12482;SDS011;6306;47.134;15.344;2022-07-06T03:12:23;4.00;;;3.40;;
12482;SDS011;6306;47.134;15.344;2022-07-06T03:14:49;2.77;;;2.53;;
12482;SDS011;6306;47.134;15.344;2022-07-06T03:17:15;3.57;;;3.27;;
12482;SDS011;6306;47.134;15.344;2022-07-06T03:19:41;3.80;;;3.50;;
12482;SDS011;6306;47.134;15.344;2022-07-06T03:22:07;3.93;;;3.60;;
12482;SDS011;6306;47.134;15.344;2022-07-06T03:24:33;5.17;;;3.23;;
12482;SDS011;6306;47.134;15.344;2022-07-06T03:26:59;3.70;;;3.40;;
12482;SDS011;6306;47.134;15.344;2022-07-06T03:29:25;3.27;;;3.03;;
12482;SDS011;6306;47.134;15.344;2022-07-06T03:31:51;4.47;;;4.00;;
12482;SDS011;6306;47.134;15.344;2022-07-06T03:34:17;3.37;;;3.13;;
12482;SDS011;6306;47.134;15.344;2022-07-06T03:36:43;7.33;;;3.30;;
12482;SDS011;6306;47.134;15.344;2022-07-06T03:39:09;6.03;;;3.43;;
12482;SDS011;6306;47.134;15.344;2022-07-06T03:41:35;6.07;;;3.97;;
12482;SDS011;6306;47.134;15.344;2022-07-06T03:44:01;6.07;;;3.70;;
12482;SDS011;6306;47.134;15.344;2022-07-06T03:46:27;5.40;;;3.93;;
12482;SDS011;6306;47.134;15.344;2022-07-06T03:48:54;6.80;;;3.63;;
12482;SDS011;6306;47.134;15.344;2022-07-06T03:51:20;4.23;;;3.83;;
12482;SDS011;6306;47.134;15.344;2022-07-06T03:53:46;3.37;;;3.07;;
12482;SDS011;6306;47.134;15.344;2022-07-06T03:56:12;3.40;;;3.10;;
12482;SDS011;6306;47.134;15.344;2022-07-06T03:58:57;4.53;;;4.00;;
12482;SDS011;6306;47.134;15.344;2022-07-06T04:01:24;11.07;;;3.47;;
12482;SDS011;6306;47.134;15.344;2022-07-06T04:03:50;4.30;;;4.00;;
12482;SDS011;6306;47.134;15.344;2022-07-06T04:06:16;4.30;;;3.90;;
12482;SDS011;6306;47.134;15.344;2022-07-06T04:08:42;8.17;;;3.70;;
12482;SDS011;6306;47.134;15.344;2022-07-06T04:11:08;3.40;;;3.07;;
12482;SDS011;6306;47.134;15.344;2022-07-06T04:13:34;3.40;;;3.10;;
12482;SDS011;6306;47.134;15.344;2022-07-06T04:16:02;3.70;;;3.40;;
12482;SDS011;6306;47.134;15.344;2022-07-06T04:18:28;3.67;;;3.37;;
12482;SDS011;6306;47.134;15.344;2022-07-06T04:20:54;3.50;;;3.20;;
12482;SDS011;6306;47.134;15.344;2022-07-06T04:23:22;4.00;;;3.50;;
12482;SDS011;6306;47.134;15.344;2022-07-06T04:25:48;6.00;;;3.40;;
12482;SDS011;6306;47.134;15.344;2022-07-06T04:28:14;3.63;;;3.33;;
12482;SDS011;6306;47.134;15.344;2022-07-06T04:30:40;4.37;;;3.97;;
12482;SDS011;6306;47.134;15.344;2022-07-06T04:33:06;4.80;;;4.40;;
12482;SDS011;6306;47.134;15.344;2022-07-06T04:35:32;5.33;;;3.57;;
12482;SDS011;6306;47.134;15.344;2022-07-06T04:37:58;3.60;;;3.07;;
12482;SDS011;6306;47.134;15.344;2022-07-06T04:40:24;4.43;;;4.10;;
12482;SDS011;6306;47.134;15.344;2022-07-06T04:42:50;4.20;;;3.80;;
12482;SDS011;6306;47.134;15.344;2022-07-06T04:45:16;4.43;;;3.60;;
12482;SDS011;6306;47.134;15.344;2022-07-06T04:47:42;4.47;;;3.60;;
12482;SDS011;6306;47.134;15.344;2022-07-06T04:50:09;3.87;;;3.23;;
12482;SDS011;6306;47.134;15.344;2022-07-06T04:52:35;8.70;;;3.90;;
12482;SDS011;6306;47.134;15.344;2022-07-06T04:55:01;3.50;;;3.20;;
12482;SDS011;6306;47.134;15.344;2022-07-06T04:57:29;4.80;;;4.40;;
12482;SDS011;6306;47.134;15.344;2022-07-06T04:59:55;4.77;;;4.30;;
12482;SDS011;6306;47.134;15.344;2022-07-06T05:02:22;4.10;;;3.77;;
12482;SDS011;6306;47.134;15.344;2022-07-06T05:04:48;3.47;;;3.17;;
12482;SDS011;6306;47.134;15.344;2022-07-06T05:07:14;3.60;;;3.30;;
12482;SDS011;6306;47.134;15.344;2022-07-06T05:09:40;3.90;;;3.40;;
12482;SDS011;6306;47.134;15.344;2022-07-06T05:12:06;3.57;;;2.97;;
12482;SDS011;6306;47.134;15.344;2022-07-06T05:14:33;3.90;;;3.60;;
12482;SDS011;6306;47.134;15.344;2022-07-06T05:16:59;3.93;;;3.40;;
12482;SDS011;6306;47.134;15.344;2022-07-06T05:19:25;9.13;;;3.63;;
12482;SDS011;6306;47.134;15.344;2022-07-06T05:21:51;8.33;;;3.63;;
12482;SDS011;6306;47.134;15.344;2022-07-06T05:24:17;3.50;;;3.10;;
12482;SDS011;6306;47.134;15.344;2022-07-06T05:26:44;4.40;;;4.10;;
12482;SDS011;6306;47.134;15.344;2022-07-06T05:29:10;5.77;;;3.63;;
12482;SDS011;6306;47.134;15.344;2022-07-06T05:31:36;4.93;;;2.93;;
12482;SDS011;6306;47.134;15.344;2022-07-06T05:34:02;3.40;;;3.10;;
12482;SDS011;6306;47.134;15.344;2022-07-06T05:36:28;4.13;;;3.73;;
12482;SDS011;6306;47.134;15.344;2022-07-06T05:38:54;3.87;;;3.57;;
12482;SDS011;6306;47.134;15.344;2022-07-06T05:41:20;5.50;;;3.33;;
12482;SDS011;6306;47.134;15.344;2022-07-06T05:43:46;3.10;;;2.90;;
12482;SDS011;6306;47.134;15.344;2022-07-06T05:46:13;4.33;;;3.40;;
12482;SDS011;6306;47.134;15.344;2022-07-06T05:48:39;3.70;;;3.40;;
12482;SDS011;6306;47.134;15.344;2022-07-06T05:51:24;4.93;;;3.63;;
12482;SDS011;6306;47.134;15.344;2022-07-06T05:53:50;4.67;;;4.00;;
12482;SDS011;6306;47.134;15.344;2022-07-06T05:56:16;3.67;;;3.20;;
12482;SDS011;6306;47.134;15.344;2022-07-06T05:58:42;3.73;;;3.43;;
12482;SDS011;6306;47.134;15.344;2022-07-06T06:01:08;3.17;;;2.87;;
12482;SDS011;6306;47.134;15.344;2022-07-06T06:03:35;3.90;;;3.50;;
12482;SDS011;6306;47.134;15.344;2022-07-06T06:06:01;3.37;;;2.40;;
12482;SDS011;6306;47.134;15.344;2022-07-06T06:08:27;4.00;;;3.20;;
12482;SDS011;6306;47.134;15.344;2022-07-06T06:10:53;3.90;;;3.43;;
12482;SDS011;6306;47.134;15.344;2022-07-06T06:13:19;3.67;;;3.37;;
12482;SDS011;6306;47.134;15.344;2022-07-06T06:15:45;3.67;;;3.37;;
12482;SDS011;6306;47.134;15.344;2022-07-06T06:18:11;10.00;;;3.70;;
12482;SDS011;6306;47.134;15.344;2022-07-06T06:20:37;3.53;;;3.23;;
12482;SDS011;6306;47.134;15.344;2022-07-06T06:23:03;10.03;;;2.90;;
12482;SDS011;6306;47.134;15.344;2022-07-06T06:25:30;3.73;;;3.40;;
12482;SDS011;6306;47.134;15.344;2022-07-06T06:27:57;3.40;;;3.10;;
12482;SDS011;6306;47.134;15.344;2022-07-06T06:30:23;3.43;;;3.13;;
12482;SDS011;6306;47.134;15.344;2022-07-06T06:32:49;3.13;;;2.83;;
12482;SDS011;6306;47.134;15.344;2022-07-06T06:35:15;3.00;;;2.80;;
12482;SDS011;6306;47.134;15.344;2022-07-06T06:37:42;2.80;;;2.60;;
12482;SDS011;6306;47.134;15.344;2022-07-06T06:40:08;4.57;;;2.93;;
12482;SDS011;6306;47.134;15.344;2022-07-06T06:42:37;3.00;;;2.80;;
12482;SDS011;6306;47.134;15.344;2022-07-06T06:45:04;3.30;;;3.00;;
12482;SDS011;6306;47.134;15.344;2022-07-06T06:47:30;2.70;;;2.50;;
12482;SDS011;6306;47.134;15.344;2022-07-06T06:49:56;7.40;;;2.80;;
12482;SDS011;6306;47.134;15.344;2022-07-06T06:52:22;3.53;;;3.23;;
12482;SDS011;6306;47.134;15.344;2022-07-06T06:54:48;4.10;;;3.03;;
12482;SDS011;6306;47.134;15.344;2022-07-06T06:57:14;3.17;;;2.97;;
12482;SDS011;6306;47.134;15.344;2022-07-06T06:59:40;3.40;;;2.37;;
12482;SDS011;6306;47.134;15.344;2022-07-06T07:02:06;3.00;;;2.70;;
12482;SDS011;6306;47.134;15.344;2022-07-06T07:04:33;3.30;;;2.80;;
12482;SDS011;6306;47.134;15.344;2022-07-06T07:06:59;4.77;;;2.77;;
12482;SDS011;6306;47.134;15.344;2022-07-06T07:09:25;2.83;;;1.87;;
12482;SDS011;6306;47.134;15.344;2022-07-06T07:11:51;2.70;;;2.30;;
12482;SDS011;6306;47.134;15.344;2022-07-06T07:14:17;2.30;;;2.20;;
12482;SDS011;6306;47.134;15.344;2022-07-06T07:16:43;2.83;;;2.63;;
12482;SDS011;6306;47.134;15.344;2022-07-06T07:19:09;3.00;;;2.03;;
12482;SDS011;6306;47.134;15.344;2022-07-06T07:21:35;2.37;;;2.20;;
12482;SDS011;6306;47.134;15.344;2022-07-06T07:24:01;2.70;;;2.50;;
12482;SDS011;6306;47.134;15.344;2022-07-06T07:26:27;2.27;;;2.07;;
12482;SDS011;6306;47.134;15.344;2022-07-06T07:28:53;3.93;;;3.23;;
12482;SDS011;6306;47.134;15.344;2022-07-06T07:31:19;3.77;;;3.07;;
12482;SDS011;6306;47.134;15.344;2022-07-06T07:33:45;4.60;;;2.60;;
12482;SDS011;6306;47.134;15.344;2022-07-06T07:36:12;2.60;;;2.40;;
12482;SDS011;6306;47.134;15.344;2022-07-06T07:38:38;2.60;;;2.37;;
12482;SDS011;6306;47.134;15.344;2022-07-06T07:41:04;3.40;;;2.90;;
12482;SDS011;6306;47.134;15.344;2022-07-06T07:43:31;2.70;;;2.50;;
12482;SDS011;6306;47.134;15.344;2022-07-06T07:45:57;4.93;;;2.40;;
12482;SDS011;6306;47.134;15.344;2022-07-06T07:48:23;3.03;;;2.80;;
12482;SDS011;6306;47.134;15.344;2022-07-06T07:50:49;3.83;;;3.53;;
12482;SDS011;6306;47.134;15.344;2022-07-06T07:53:15;3.27;;;3.07;;
12482;SDS011;6306;47.134;15.344;2022-07-06T07:55:41;2.53;;;2.10;;
12482;SDS011;6306;47.134;15.344;2022-07-06T07:58:07;2.37;;;2.17;;
12482;SDS011;6306;47.134;15.344;2022-07-06T08:00:33;3.27;;;2.00;;
12482;SDS011;6306;47.134;15.344;2022-07-06T08:02:59;2.20;;;1.93;;
12482;SDS011;6306;47.134;15.344;2022-07-06T08:05:26;2.20;;;2.10;;
12482;SDS011;6306;47.134;15.344;2022-07-06T08:07:52;2.30;;;2.10;;
12482;SDS011;6306;47.134;15.344;2022-07-06T08:10:18;1.47;;;1.37;;
12482;SDS011;6306;47.134;15.344;2022-07-06T08:12:44;1.83;;;1.37;;
12482;SDS011;6306;47.134;15.344;2022-07-06T08:15:10;1.60;;;1.57;;
12482;SDS011;6306;47.134;15.344;2022-07-06T08:17:36;1.93;;;1.73;;
12482;SDS011;6306;47.134;15.344;2022-07-06T08:20:04;1.33;;;1.23;;
12482;SDS011;6306;47.134;15.344;2022-07-06T08:22:30;1.70;;;1.60;;
12482;SDS011;6306;47.134;15.344;2022-07-06T08:24:57;1.53;;;1.43;;
12482;SDS011;6306;47.134;15.344;2022-07-06T08:27:23;4.87;;;1.83;;
12482;SDS011;6306;47.134;15.344;2022-07-06T08:29:49;1.33;;;1.27;;
12482;SDS011;6306;47.134;15.344;2022-07-06T08:32:15;1.37;;;1.27;;
12482;SDS011;6306;47.134;15.344;2022-07-06T08:34:41;1.07;;;1.07;;
12482;SDS011;6306;47.134;15.344;2022-07-06T08:37:09;2.37;;;1.50;;
12482;SDS011;6306;47.134;15.344;2022-07-06T08:39:35;1.43;;;1.00;;
12482;SDS011;6306;47.134;15.344;2022-07-06T08:42:01;2.10;;;1.37;;
12482;SDS011;6306;47.134;15.344;2022-07-06T08:44:27;1.70;;;1.60;;
12482;SDS011;6306;47.134;15.344;2022-07-06T08:46:54;1.77;;;1.53;;
12482;SDS011;6306;47.134;15.344;2022-07-06T08:49:22;1.20;;;1.10;;
12482;SDS011;6306;47.134;15.344;2022-07-06T08:51:48;1.47;;;1.37;;
12482;SDS011;6306;47.134;15.344;2022-07-06T08:54:14;1.90;;;1.67;;
12482;SDS011;6306;47.134;15.344;2022-07-06T08:56:40;3.53;;;1.57;;
12482;SDS011;6306;47.134;15.344;2022-07-06T08:59:07;1.43;;;1.10;;
12482;SDS011;6306;47.134;15.344;2022-07-06T09:01:34;1.40;;;1.30;;
12482;SDS011;6306;47.134;15.344;2022-07-06T09:04:00;1.90;;;1.20;;
12482;SDS011;6306;47.134;15.344;2022-07-06T09:06:28;1.50;;;1.40;;
12482;SDS011;6306;47.134;15.344;2022-07-06T09:08:56;1.30;;;1.20;;
12482;SDS011;6306;47.134;15.344;2022-07-06T09:11:22;1.43;;;1.33;;
12482;SDS011;6306;47.134;15.344;2022-07-06T09:13:49;1.20;;;1.10;;
12482;SDS011;6306;47.134;15.344;2022-07-06T09:16:16;1.70;;;1.20;;
12482;SDS011;6306;47.134;15.344;2022-07-06T09:18:46;2.57;;;1.60;;
12482;SDS011;6306;47.134;15.344;2022-07-06T09:21:22;4.47;;;1.83;;
12482;SDS011;6306;47.134;15.344;2022-07-06T09:23:52;1.60;;;1.10;;
12482;SDS011;6306;47.134;15.344;2022-07-06T09:26:19;1.33;;;1.23;;
12482;SDS011;6306;47.134;15.344;2022-07-06T09:28:45;1.20;;;1.20;;
12482;SDS011;6306;47.134;15.344;2022-07-06T09:31:12;1.30;;;1.30;;
12482;SDS011;6306;47.134;15.344;2022-07-06T09:33:38;1.67;;;1.57;;
12482;SDS011;6306;47.134;15.344;2022-07-06T09:36:04;1.37;;;1.27;;
12482;SDS011;6306;47.134;15.344;2022-07-06T09:38:31;1.27;;;1.27;;
12482;SDS011;6306;47.134;15.344;2022-07-06T09:40:57;1.27;;;0.90;;
12482;SDS011;6306;47.134;15.344;2022-07-06T09:43:24;1.07;;;1.07;;
12482;SDS011;6306;47.134;15.344;2022-07-06T09:48:17;1.50;;;1.40;;
12482;SDS011;6306;47.134;15.344;2022-07-06T09:50:50;1.60;;;1.50;;
12482;SDS011;6306;47.134;15.344;2022-07-06T09:53:17;1.00;;;1.00;;
12482;SDS011;6306;47.134;15.344;2022-07-06T09:55:45;1.40;;;1.30;;
12482;SDS011;6306;47.134;15.344;2022-07-06T09:58:12;1.30;;;1.20;;
12482;SDS011;6306;47.134;15.344;2022-07-06T10:00:38;2.43;;;1.50;;
12482;SDS011;6306;47.134;15.344;2022-07-06T10:03:05;1.10;;;1.00;;
12482;SDS011;6306;47.134;15.344;2022-07-06T10:05:31;1.40;;;1.30;;
12482;SDS011;6306;47.134;15.344;2022-07-06T10:07:58;0.93;;;0.90;;
12482;SDS011;6306;47.134;15.344;2022-07-06T10:10:28;1.03;;;1.03;;
12482;SDS011;6306;47.134;15.344;2022-07-06T10:12:55;4.10;;;0.97;;
12482;SDS011;6306;47.134;15.344;2022-07-06T10:15:22;2.97;;;1.37;;
12482;SDS011;6306;47.134;15.344;2022-07-06T10:17:50;1.47;;;1.13;;
12482;SDS011;6306;47.134;15.344;2022-07-06T10:20:17;1.23;;;1.20;;
12482;SDS011;6306;47.134;15.344;2022-07-06T10:22:43;0.73;;;0.73;;
12482;SDS011;6306;47.134;15.344;2022-07-06T10:25:10;1.57;;;1.40;;
12482;SDS011;6306;47.134;15.344;2022-07-06T10:27:36;1.00;;;1.00;;
12482;SDS011;6306;47.134;15.344;2022-07-06T10:30:03;1.00;;;0.90;;
12482;SDS011;6306;47.134;15.344;2022-07-06T10:32:30;1.20;;;1.10;;
12482;SDS011;6306;47.134;15.344;2022-07-06T10:34:56;1.20;;;0.83;;
12482;SDS011;6306;47.134;15.344;2022-07-06T10:37:23;1.23;;;1.03;;
12482;SDS011;6306;47.134;15.344;2022-07-06T10:39:49;1.17;;;1.03;;
12482;SDS011;6306;47.134;15.344;2022-07-06T10:45:07;1.00;;;1.00;;
12482;SDS011;6306;47.134;15.344;2022-07-06T10:47:34;0.90;;;0.90;;
12482;SDS011;6306;47.134;15.344;2022-07-06T10:50:00;0.90;;;0.90;;
12482;SDS011;6306;47.134;15.344;2022-07-06T10:55:30;0.90;;;0.90;;
12482;SDS011;6306;47.134;15.344;2022-07-06T10:57:56;0.90;;;0.80;;
12482;SDS011;6306;47.134;15.344;2022-07-06T11:00:23;0.97;;;0.87;;
12482;SDS011;6306;47.134;15.344;2022-07-06T11:02:49;1.60;;;1.30;;
12482;SDS011;6306;47.134;15.344;2022-07-06T11:08:01;1.80;;;1.23;;
12482;SDS011;6306;47.134;15.344;2022-07-06T11:10:27;0.80;;;0.80;;
12482;SDS011;6306;47.134;15.344;2022-07-06T11:12:59;0.90;;;0.90;;
12482;SDS011;6306;47.134;15.344;2022-07-06T11:18:11;0.90;;;0.90;;
12482;SDS011;6306;47.134;15.344;2022-07-06T11:20:37;1.27;;;1.10;;
12482;SDS011;6306;47.134;15.344;2022-07-06T11:23:03;1.63;;;1.30;;
12482;SDS011;6306;47.134;15.344;2022-07-06T11:25:29;1.27;;;1.00;;
12482;SDS011;6306;47.134;15.344;2022-07-06T11:27:55;1.00;;;0.90;;
12482;SDS011;6306;47.134;15.344;2022-07-06T11:30:21;0.90;;;0.90;;
12482;SDS011;6306;47.134;15.344;2022-07-06T11:32:47;1.20;;;1.13;;
12482;SDS011;6306;47.134;15.344;2022-07-06T11:35:20;0.90;;;0.90;;
12482;SDS011;6306;47.134;15.344;2022-07-06T11:37:47;1.57;;;1.47;;
12482;SDS011;6306;47.134;15.344;2022-07-06T11:40:13;1.07;;;1.07;;
12482;SDS011;6306;47.134;15.344;2022-07-06T11:42:39;0.80;;;0.80;;
12482;SDS011;6306;47.134;15.344;2022-07-06T11:45:05;1.23;;;1.23;;
12482;SDS011;6306;47.134;15.344;2022-07-06T11:47:32;1.70;;;1.13;;
12482;SDS011;6306;47.134;15.344;2022-07-06T11:49:59;0.93;;;0.93;;
12482;SDS011;6306;47.134;15.344;2022-07-06T11:52:25;0.80;;;0.80;;
12482;SDS011;6306;47.134;15.344;2022-07-06T11:54:56;1.57;;;0.70;;
12482;SDS011;6306;47.134;15.344;2022-07-06T11:57:22;1.17;;;1.07;;
12482;SDS011;6306;47.134;15.344;2022-07-06T11:59:49;1.03;;;0.90;;
12482;SDS011;6306;47.134;15.344;2022-07-06T12:02:17;1.23;;;1.10;;
12482;SDS011;6306;47.134;15.344;2022-07-06T12:04:44;1.07;;;1.00;;
12482;SDS011;6306;47.134;15.344;2022-07-06T12:07:14;1.00;;;1.00;;
12482;SDS011;6306;47.134;15.344;2022-07-06T12:09:44;0.80;;;0.80;;
12482;SDS011;6306;47.134;15.344;2022-07-06T12:12:11;1.00;;;1.00;;
12482;SDS011;6306;47.134;15.344;2022-07-06T12:14:38;0.87;;;0.87;;
12482;SDS011;6306;47.134;15.344;2022-07-06T12:17:06;0.53;;;0.53;;
12482;SDS011;6306;47.134;15.344;2022-07-06T12:19:32;1.63;;;1.13;;
12482;SDS011;6306;47.134;15.344;2022-07-06T12:21:58;0.80;;;0.80;;
12482;SDS011;6306;47.134;15.344;2022-07-06T12:24:27;1.47;;;0.80;;
12482;SDS011;6306;47.134;15.344;2022-07-06T12:26:53;2.20;;;1.40;;
12482;SDS011;6306;47.134;15.344;2022-07-06T12:29:20;1.03;;;0.93;;
12482;SDS011;6306;47.134;15.344;2022-07-06T12:34:14;1.33;;;1.00;;
12482;SDS011;6306;47.134;15.344;2022-07-06T12:36:47;0.83;;;0.80;;
12482;SDS011;6306;47.134;15.344;2022-07-06T12:39:15;2.20;;;1.30;;
12482;SDS011;6306;47.134;15.344;2022-07-06T12:41:55;1.70;;;0.90;;
12482;SDS011;6306;47.134;15.344;2022-07-06T12:44:24;5.10;;;1.90;;
12482;SDS011;6306;47.134;15.344;2022-07-06T12:47:12;2.07;;;0.90;;
12482;SDS011;6306;47.134;15.344;2022-07-06T12:49:38;1.43;;;0.90;;
12482;SDS011;6306;47.134;15.344;2022-07-06T12:54:34;1.00;;;1.00;;
12482;SDS011;6306;47.134;15.344;2022-07-06T12:57:04;1.20;;;1.10;;
12482;SDS011;6306;47.134;15.344;2022-07-06T12:59:31;0.80;;;0.80;;
12482;SDS011;6306;47.134;15.344;2022-07-06T13:01:57;1.70;;;0.90;;
12482;SDS011;6306;47.134;15.344;2022-07-06T13:04:24;1.53;;;0.90;;
12482;SDS011;6306;47.134;15.344;2022-07-06T13:06:51;1.10;;;1.10;;
12482;SDS011;6306;47.134;15.344;2022-07-06T13:09:17;2.00;;;0.80;;
12482;SDS011;6306;47.134;15.344;2022-07-06T13:11:44;1.90;;;0.83;;
12482;SDS011;6306;47.134;15.344;2022-07-06T13:14:10;0.73;;;0.60;;
12482;SDS011;6306;47.134;15.344;2022-07-06T13:16:36;1.07;;;1.00;;
12482;SDS011;6306;47.134;15.344;2022-07-06T13:19:02;1.80;;;0.83;;
12482;SDS011;6306;47.134;15.344;2022-07-06T13:21:28;1.10;;;1.00;;
12482;SDS011;6306;47.134;15.344;2022-07-06T13:23:54;1.13;;;1.07;;
12482;SDS011;6306;47.134;15.344;2022-07-06T13:26:20;1.13;;;1.13;;
12482;SDS011;6306;47.134;15.344;2022-07-06T13:28:46;0.87;;;0.87;;
12482;SDS011;6306;47.134;15.344;2022-07-06T13:31:12;1.03;;;1.00;;
12482;SDS011;6306;47.134;15.344;2022-07-06T13:33:39;1.40;;;1.00;;
12482;SDS011;6306;47.134;15.344;2022-07-06T13:36:05;0.87;;;0.87;;
12482;SDS011;6306;47.134;15.344;2022-07-06T13:38:31;1.63;;;1.53;;
12482;SDS011;6306;47.134;15.344;2022-07-06T13:40:57;0.97;;;0.97;;
12482;SDS011;6306;47.134;15.344;2022-07-06T13:43:23;0.80;;;0.80;;
12482;SDS011;6306;47.134;15.344;2022-07-06T13:45:49;0.60;;;0.60;;
12482;SDS011;6306;47.134;15.344;2022-07-06T13:48:15;1.60;;;1.50;;
12482;SDS011;6306;47.134;15.344;2022-07-06T13:50:41;1.40;;;1.10;;
12482;SDS011;6306;47.134;15.344;2022-07-06T13:53:07;4.20;;;1.07;;
12482;SDS011;6306;47.134;15.344;2022-07-06T13:55:33;1.10;;;1.00;;
12482;SDS011;6306;47.134;15.344;2022-07-06T13:57:59;0.70;;;0.70;;
12482;SDS011;6306;47.134;15.344;2022-07-06T14:00:25;0.87;;;0.83;;
12482;SDS011;6306;47.134;15.344;2022-07-06T14:02:51;0.80;;;0.80;;
12482;SDS011;6306;47.134;15.344;2022-07-06T14:05:17;2.20;;;0.70;;
12482;SDS011;6306;47.134;15.344;2022-07-06T14:07:43;0.70;;;0.70;;
12482;SDS011;6306;47.134;15.344;2022-07-06T14:10:10;1.00;;;1.00;;
12482;SDS011;6306;47.134;15.344;2022-07-06T14:12:36;1.23;;;0.83;;
12482;SDS011;6306;47.134;15.344;2022-07-06T14:15:02;1.63;;;0.90;;
12482;SDS011;6306;47.134;15.344;2022-07-06T14:17:28;2.13;;;1.03;;
12482;SDS011;6306;47.134;15.344;2022-07-06T14:19:54;0.80;;;0.80;;
12482;SDS011;6306;47.134;15.344;2022-07-06T14:22:20;1.37;;;0.97;;
12482;SDS011;6306;47.134;15.344;2022-07-06T14:24:46;1.33;;;0.97;;
12482;SDS011;6306;47.134;15.344;2022-07-06T14:27:12;0.80;;;0.80;;
12482;SDS011;6306;47.134;15.344;2022-07-06T14:29:38;1.40;;;1.30;;
12482;SDS011;6306;47.134;15.344;2022-07-06T14:32:04;1.67;;;1.40;;
12482;SDS011;6306;47.134;15.344;2022-07-06T14:34:30;1.57;;;0.83;;
12482;SDS011;6306;47.134;15.344;2022-07-06T14:36:56;0.70;;;0.70;;
12482;SDS011;6306;47.134;15.344;2022-07-06T14:39:22;0.93;;;0.93;;
12482;SDS011;6306;47.134;15.344;2022-07-06T14:41:48;1.20;;;1.10;;
12482;SDS011;6306;47.134;15.344;2022-07-06T14:44:14;0.90;;;0.90;;
12482;SDS011;6306;47.134;15.344;2022-07-06T14:46:40;1.17;;;1.07;;
12482;SDS011;6306;47.134;15.344;2022-07-06T14:49:06;1.17;;;1.17;;
12482;SDS011;6306;47.134;15.344;2022-07-06T14:51:32;1.07;;;1.00;;
12482;SDS011;6306;47.134;15.344;2022-07-06T14:53:58;1.30;;;1.13;;
12482;SDS011;6306;47.134;15.344;2022-07-06T14:56:24;3.13;;;2.27;;
12482;SDS011;6306;47.134;15.344;2022-07-06T14:58:50;1.37;;;1.27;;
12482;SDS011;6306;47.134;15.344;2022-07-06T15:01:16;1.43;;;1.00;;
12482;SDS011;6306;47.134;15.344;2022-07-06T15:03:42;1.27;;;1.17;;